ADDS METAR Data INFO
IDs: Format: Raw Decoded Include TAF

Data at: 0202 UTC 26 Apr 2017

METAR for:KSAT (San Antonio Intl, TX, US)
Text:KSAT 260151Z 11014KT 10SM FEW030 BKN250 27/22 A2949 RMK AO2 SLP970 T02670217
Temperature: 26.7°C ( 80°F)
Dewpoint: 21.7°C ( 71°F) [RH = 74%]
Pressure (altimeter):29.49 inches Hg ( 998.7 mb) [Sea level pressure: 997.0 mb]
Winds:from the ESE (110 degrees) at 16 MPH (14 knots; 7.2 m/s)
Visibility:10 or more sm (16+ km)
Ceiling:25000 feet AGL
Clouds: few clouds at 3000 feet AGL, broken clouds at 25000 feet AGL


Page loaded:  02:02 UTC  |   07:02 PM Pacific  |   08:02 PM Mountain  |   09:02 PM Central  |   10:02 PM Eastern

 

ADVISORIES

FORECASTS

FORECASTS

OBSERVATIONS

USER TOOLS

ABOUT US